sensor_id;sensor_type;location;lat;lon;timestamp;temperature;humidity
44166;DHT22;30476;53.468;9.826;2023-02-02T00:00:45;6.60;99.90
44166;DHT22;30476;53.468;9.826;2023-02-02T00:03:11;6.50;99.90
44166;DHT22;30476;53.468;9.826;2023-02-02T00:05:37;6.50;99.90
44166;DHT22;30476;53.468;9.826;2023-02-02T00:08:02;6.60;99.90
44166;DHT22;30476;53.468;9.826;2023-02-02T00:10:28;6.50;99.90
44166;DHT22;30476;53.468;9.826;2023-02-02T00:12:54;6.50;99.90
44166;DHT22;30476;53.468;9.826;2023-02-02T00:15:23;6.50;99.90
44166;DHT22;30476;53.468;9.826;2023-02-02T00:17:49;6.40;99.90
44166;DHT22;30476;53.468;9.826;2023-02-02T00:20:15;6.40;99.90
44166;DHT22;30476;53.468;9.826;2023-02-02T00:22:40;6.40;99.90
44166;DHT22;30476;53.468;9.826;2023-02-02T00:25:07;6.30;99.90
44166;DHT22;30476;53.468;9.826;2023-02-02T00:27:33;6.30;99.90
44166;DHT22;30476;53.468;9.826;2023-02-02T00:29:58;6.20;99.90
44166;DHT22;30476;53.468;9.826;2023-02-02T00:32:24;6.20;99.90
44166;DHT22;30476;53.468;9.826;2023-02-02T00:34:50;6.20;99.90
44166;DHT22;30476;53.468;9.826;2023-02-02T00:37:15;6.20;99.90
44166;DHT22;30476;53.468;9.826;2023-02-02T00:39:41;6.20;99.90
44166;DHT22;30476;53.468;9.826;2023-02-02T00:42:10;6.20;99.90
44166;DHT22;30476;53.468;9.826;2023-02-02T00:44:36;6.30;99.90
44166;DHT22;30476;53.468;9.826;2023-02-02T00:47:20;6.30;99.90
44166;DHT22;30476;53.468;9.826;2023-02-02T00:49:47;6.40;99.90
44166;DHT22;30476;53.468;9.826;2023-02-02T00:52:13;6.40;99.90
44166;DHT22;30476;53.468;9.826;2023-02-02T00:54:39;6.30;99.90
44166;DHT22;30476;53.468;9.826;2023-02-02T00:57:05;6.30;99.90
44166;DHT22;30476;53.468;9.826;2023-02-02T00:59:31;6.30;99.90
44166;DHT22;30476;53.468;9.826;2023-02-02T01:01:57;6.30;99.90
44166;DHT22;30476;53.468;9.826;2023-02-02T01:04:23;6.30;99.90
44166;DHT22;30476;53.468;9.826;2023-02-02T01:06:48;6.40;99.90
44166;DHT22;30476;53.468;9.826;2023-02-02T01:09:14;6.40;99.90
44166;DHT22;30476;53.468;9.826;2023-02-02T01:11:40;6.30;99.90
44166;DHT22;30476;53.468;9.826;2023-02-02T01:14:06;6.30;99.90
44166;DHT22;30476;53.468;9.826;2023-02-02T01:16:31;6.30;99.90
44166;DHT22;30476;53.468;9.826;2023-02-02T01:18:57;6.30;99.90
44166;DHT22;30476;53.468;9.826;2023-02-02T01:21:23;6.40;99.90
44166;DHT22;30476;53.468;9.826;2023-02-02T01:23:49;6.40;99.90
44166;DHT22;30476;53.468;9.826;2023-02-02T01:26:15;6.40;99.90
44166;DHT22;30476;53.468;9.826;2023-02-02T01:28:42;6.40;99.90
44166;DHT22;30476;53.468;9.826;2023-02-02T01:31:13;6.30;99.90
44166;DHT22;30476;53.468;9.826;2023-02-02T01:33:40;6.30;99.90
44166;DHT22;30476;53.468;9.826;2023-02-02T01:36:11;6.40;99.90
44166;DHT22;30476;53.468;9.826;2023-02-02T01:38:38;6.30;99.90
44166;DHT22;30476;53.468;9.826;2023-02-02T01:41:05;6.40;99.90
44166;DHT22;30476;53.468;9.826;2023-02-02T01:46:16;6.30;99.90
44166;DHT22;30476;53.468;9.826;2023-02-02T01:48:48;6.30;99.90
44166;DHT22;30476;53.468;9.826;2023-02-02T01:51:18;6.30;99.90
44166;DHT22;30476;53.468;9.826;2023-02-02T01:53:46;6.30;99.90
44166;DHT22;30476;53.468;9.826;2023-02-02T01:56:23;6.30;99.90
44166;DHT22;30476;53.468;9.826;2023-02-02T01:58:49;6.30;99.90
44166;DHT22;30476;53.468;9.826;2023-02-02T02:01:16;6.30;99.90
44166;DHT22;30476;53.468;9.826;2023-02-02T02:03:42;6.20;99.90
44166;DHT22;30476;53.468;9.826;2023-02-02T02:06:11;6.30;99.90
44166;DHT22;30476;53.468;9.826;2023-02-02T02:09:07;6.20;99.90
44166;DHT22;30476;53.468;9.826;2023-02-02T02:11:34;6.30;99.90
44166;DHT22;30476;53.468;9.826;2023-02-02T02:14:08;6.30;99.90
44166;DHT22;30476;53.468;9.826;2023-02-02T02:32:05;6.30;99.90
44166;DHT22;30476;53.468;9.826;2023-02-02T02:34:52;6.30;99.90
44166;DHT22;30476;53.468;9.826;2023-02-02T02:37:40;6.30;99.90
44166;DHT22;30476;53.468;9.826;2023-02-02T02:40:23;6.30;99.90
44166;DHT22;30476;53.468;9.826;2023-02-02T02:42:57;6.40;99.90
44166;DHT22;30476;53.468;9.826;2023-02-02T02:45:25;6.40;99.90
44166;DHT22;30476;53.468;9.826;2023-02-02T02:47:52;6.40;99.90
44166;DHT22;30476;53.468;9.826;2023-02-02T02:50:19;6.40;99.90
44166;DHT22;30476;53.468;9.826;2023-02-02T02:52:46;6.50;99.90
44166;DHT22;30476;53.468;9.826;2023-02-02T02:55:14;6.50;99.90
44166;DHT22;30476;53.468;9.826;2023-02-02T02:58:03;6.40;99.90
44166;DHT22;30476;53.468;9.826;2023-02-02T03:06:21;6.20;99.90
44166;DHT22;30476;53.468;9.826;2023-02-02T03:08:57;6.30;99.90
44166;DHT22;30476;53.468;9.826;2023-02-02T03:11:24;6.30;99.90
44166;DHT22;30476;53.468;9.826;2023-02-02T03:13:50;6.30;99.90
44166;DHT22;30476;53.468;9.826;2023-02-02T03:16:16;6.30;99.90
44166;DHT22;30476;53.468;9.826;2023-02-02T03:18:42;6.40;99.90
44166;DHT22;30476;53.468;9.826;2023-02-02T03:21:08;6.40;99.90
44166;DHT22;30476;53.468;9.826;2023-02-02T03:23:34;6.40;99.90
44166;DHT22;30476;53.468;9.826;2023-02-02T03:26:00;6.40;99.90
44166;DHT22;30476;53.468;9.826;2023-02-02T03:28:27;6.40;99.90
44166;DHT22;30476;53.468;9.826;2023-02-02T03:30:54;6.40;99.90
44166;DHT22;30476;53.468;9.826;2023-02-02T03:33:22;6.30;99.90
44166;DHT22;30476;53.468;9.826;2023-02-02T03:35:48;6.20;99.90
44166;DHT22;30476;53.468;9.826;2023-02-02T03:38:14;6.20;99.90
44166;DHT22;30476;53.468;9.826;2023-02-02T03:40:40;6.20;99.90
44166;DHT22;30476;53.468;9.826;2023-02-02T03:43:06;6.20;99.90
44166;DHT22;30476;53.468;9.826;2023-02-02T03:45:32;6.30;99.90
44166;DHT22;30476;53.468;9.826;2023-02-02T03:48:02;6.20;99.90
44166;DHT22;30476;53.468;9.826;2023-02-02T03:50:28;6.20;99.90
44166;DHT22;30476;53.468;9.826;2023-02-02T03:52:54;6.20;99.90
44166;DHT22;30476;53.468;9.826;2023-02-02T03:55:20;6.30;99.90
44166;DHT22;30476;53.468;9.826;2023-02-02T03:57:46;6.30;99.90
44166;DHT22;30476;53.468;9.826;2023-02-02T04:00:12;6.30;99.90
44166;DHT22;30476;53.468;9.826;2023-02-02T04:02:38;6.30;99.90
44166;DHT22;30476;53.468;9.826;2023-02-02T04:05:04;6.20;99.90
44166;DHT22;30476;53.468;9.826;2023-02-02T04:07:30;6.20;99.90
44166;DHT22;30476;53.468;9.826;2023-02-02T04:09:56;6.20;99.90
44166;DHT22;30476;53.468;9.826;2023-02-02T04:12:22;6.20;99.90
44166;DHT22;30476;53.468;9.826;2023-02-02T04:14:47;6.20;99.90
44166;DHT22;30476;53.468;9.826;2023-02-02T04:17:13;6.20;99.90
44166;DHT22;30476;53.468;9.826;2023-02-02T04:19:39;6.20;99.90
44166;DHT22;30476;53.468;9.826;2023-02-02T04:22:05;6.20;99.90
44166;DHT22;30476;53.468;9.826;2023-02-02T04:24:30;6.30;99.90
44166;DHT22;30476;53.468;9.826;2023-02-02T04:26:56;6.20;99.90
44166;DHT22;30476;53.468;9.826;2023-02-02T04:29:22;6.20;99.90
44166;DHT22;30476;53.468;9.826;2023-02-02T04:31:48;6.20;99.90
44166;DHT22;30476;53.468;9.826;2023-02-02T04:34:14;6.20;99.90
44166;DHT22;30476;53.468;9.826;2023-02-02T04:36:39;6.20;99.90
44166;DHT22;30476;53.468;9.826;2023-02-02T04:39:05;6.20;99.90
44166;DHT22;30476;53.468;9.826;2023-02-02T04:41:31;6.20;99.90
44166;DHT22;30476;53.468;9.826;2023-02-02T04:43:57;6.20;99.90
44166;DHT22;30476;53.468;9.826;2023-02-02T04:46:22;6.20;99.90
44166;DHT22;30476;53.468;9.826;2023-02-02T04:48:48;6.20;99.90
44166;DHT22;30476;53.468;9.826;2023-02-02T04:51:14;6.20;99.90
44166;DHT22;30476;53.468;9.826;2023-02-02T04:53:41;6.20;99.90
44166;DHT22;30476;53.468;9.826;2023-02-02T04:56:10;6.20;99.90
44166;DHT22;30476;53.468;9.826;2023-02-02T04:58:36;6.20;99.90
44166;DHT22;30476;53.468;9.826;2023-02-02T05:01:16;6.20;99.90
44166;DHT22;30476;53.468;9.826;2023-02-02T05:03:43;6.20;99.90
44166;DHT22;30476;53.468;9.826;2023-02-02T05:06:09;6.30;99.90
44166;DHT22;30476;53.468;9.826;2023-02-02T05:08:35;6.30;99.90
44166;DHT22;30476;53.468;9.826;2023-02-02T05:11:06;6.30;99.90
44166;DHT22;30476;53.468;9.826;2023-02-02T05:13:32;6.30;99.90
44166;DHT22;30476;53.468;9.826;2023-02-02T05:15:58;6.20;99.90
44166;DHT22;30476;53.468;9.826;2023-02-02T05:18:24;6.30;99.90
44166;DHT22;30476;53.468;9.826;2023-02-02T05:20:51;6.40;99.90
44166;DHT22;30476;53.468;9.826;2023-02-02T05:23:17;6.30;99.90
44166;DHT22;30476;53.468;9.826;2023-02-02T05:25:43;6.30;99.90
44166;DHT22;30476;53.468;9.826;2023-02-02T05:28:09;6.30;99.90
44166;DHT22;30476;53.468;9.826;2023-02-02T05:30:38;6.40;99.90
44166;DHT22;30476;53.468;9.826;2023-02-02T05:33:04;6.30;99.90
44166;DHT22;30476;53.468;9.826;2023-02-02T05:35:29;6.30;99.90
44166;DHT22;30476;53.468;9.826;2023-02-02T05:37:55;6.30;99.90
44166;DHT22;30476;53.468;9.826;2023-02-02T05:40:21;6.30;99.90
44166;DHT22;30476;53.468;9.826;2023-02-02T05:42:47;6.30;99.90
44166;DHT22;30476;53.468;9.826;2023-02-02T05:45:14;6.40;99.90
44166;DHT22;30476;53.468;9.826;2023-02-02T05:47:40;6.40;99.90
44166;DHT22;30476;53.468;9.826;2023-02-02T05:50:06;6.40;99.90
44166;DHT22;30476;53.468;9.826;2023-02-02T05:52:33;6.40;99.90
44166;DHT22;30476;53.468;9.826;2023-02-02T05:55:00;6.40;99.90
44166;DHT22;30476;53.468;9.826;2023-02-02T05:57:25;6.40;99.90
44166;DHT22;30476;53.468;9.826;2023-02-02T05:59:53;6.40;99.90
44166;DHT22;30476;53.468;9.826;2023-02-02T06:02:19;6.30;99.90
44166;DHT22;30476;53.468;9.826;2023-02-02T06:04:45;6.30;99.90
44166;DHT22;30476;53.468;9.826;2023-02-02T06:07:10;6.30;99.90
44166;DHT22;30476;53.468;9.826;2023-02-02T06:09:37;6.30;99.90
44166;DHT22;30476;53.468;9.826;2023-02-02T06:12:04;6.30;99.90
44166;DHT22;30476;53.468;9.826;2023-02-02T06:14:30;6.30;99.90
44166;DHT22;30476;53.468;9.826;2023-02-02T06:16:56;6.30;99.90
44166;DHT22;30476;53.468;9.826;2023-02-02T06:19:22;6.40;99.90
44166;DHT22;30476;53.468;9.826;2023-02-02T06:21:48;6.40;99.90
44166;DHT22;30476;53.468;9.826;2023-02-02T06:24:14;6.40;99.90
44166;DHT22;30476;53.468;9.826;2023-02-02T06:26:39;6.40;99.90
44166;DHT22;30476;53.468;9.826;2023-02-02T06:29:05;6.40;99.90
44166;DHT22;30476;53.468;9.826;2023-02-02T06:31:32;6.40;99.90
44166;DHT22;30476;53.468;9.826;2023-02-02T06:33:58;6.40;99.90
44166;DHT22;30476;53.468;9.826;2023-02-02T06:36:25;6.40;99.90
44166;DHT22;30476;53.468;9.826;2023-02-02T06:38:53;6.40;99.90
44166;DHT22;30476;53.468;9.826;2023-02-02T06:41:20;6.40;99.90
44166;DHT22;30476;53.468;9.826;2023-02-02T06:43:46;6.40;99.90
44166;DHT22;30476;53.468;9.826;2023-02-02T06:46:12;6.30;99.90
44166;DHT22;30476;53.468;9.826;2023-02-02T06:48:38;6.40;99.90
44166;DHT22;30476;53.468;9.826;2023-02-02T06:51:04;6.30;99.90
44166;DHT22;30476;53.468;9.826;2023-02-02T06:53:31;6.30;99.90
44166;DHT22;30476;53.468;9.826;2023-02-02T06:55:59;6.40;99.90
44166;DHT22;30476;53.468;9.826;2023-02-02T06:58:26;6.40;99.90
44166;DHT22;30476;53.468;9.826;2023-02-02T07:00:53;6.40;99.90
44166;DHT22;30476;53.468;9.826;2023-02-02T07:03:20;6.30;99.90
44166;DHT22;30476;53.468;9.826;2023-02-02T07:05:49;6.40;99.90
44166;DHT22;30476;53.468;9.826;2023-02-02T07:08:15;6.40;99.90
44166;DHT22;30476;53.468;9.826;2023-02-02T07:10:41;6.40;99.90
44166;DHT22;30476;53.468;9.826;2023-02-02T07:13:09;6.40;99.90
44166;DHT22;30476;53.468;9.826;2023-02-02T07:15:37;6.40;99.90
44166;DHT22;30476;53.468;9.826;2023-02-02T07:18:03;6.30;99.90
44166;DHT22;30476;53.468;9.826;2023-02-02T07:20:29;6.40;99.90
44166;DHT22;30476;53.468;9.826;2023-02-02T07:22:55;6.40;99.90
44166;DHT22;30476;53.468;9.826;2023-02-02T07:25:21;6.40;99.90
44166;DHT22;30476;53.468;9.826;2023-02-02T07:27:47;6.30;99.90
44166;DHT22;30476;53.468;9.826;2023-02-02T07:30:16;6.30;99.90
44166;DHT22;30476;53.468;9.826;2023-02-02T07:32:49;6.40;99.90
44166;DHT22;30476;53.468;9.826;2023-02-02T07:35:16;6.40;99.90
44166;DHT22;30476;53.468;9.826;2023-02-02T07:37:42;6.40;99.90
44166;DHT22;30476;53.468;9.826;2023-02-02T07:40:08;6.40;99.90
44166;DHT22;30476;53.468;9.826;2023-02-02T07:42:34;6.40;99.90
44166;DHT22;30476;53.468;9.826;2023-02-02T07:45:00;6.40;99.90
44166;DHT22;30476;53.468;9.826;2023-02-02T07:47:26;6.40;99.90
44166;DHT22;30476;53.468;9.826;2023-02-02T07:49:52;6.50;99.90
44166;DHT22;30476;53.468;9.826;2023-02-02T07:52:18;6.50;99.90
44166;DHT22;30476;53.468;9.826;2023-02-02T07:54:44;6.50;99.90
44166;DHT22;30476;53.468;9.826;2023-02-02T07:57:10;6.50;99.90
44166;DHT22;30476;53.468;9.826;2023-02-02T07:59:37;6.50;99.90
44166;DHT22;30476;53.468;9.826;2023-02-02T08:02:03;6.50;99.90
44166;DHT22;30476;53.468;9.826;2023-02-02T08:04:29;6.50;99.90
44166;DHT22;30476;53.468;9.826;2023-02-02T08:06:57;6.50;99.90
44166;DHT22;30476;53.468;9.826;2023-02-02T08:09:23;6.50;99.90
44166;DHT22;30476;53.468;9.826;2023-02-02T08:11:49;6.50;99.90
44166;DHT22;30476;53.468;9.826;2023-02-02T08:14:15;6.50;99.90
44166;DHT22;30476;53.468;9.826;2023-02-02T08:16:41;6.50;99.90
44166;DHT22;30476;53.468;9.826;2023-02-02T08:19:08;6.50;99.90
44166;DHT22;30476;53.468;9.826;2023-02-02T08:21:34;6.60;99.90
44166;DHT22;30476;53.468;9.826;2023-02-02T08:24:00;6.60;99.90
44166;DHT22;30476;53.468;9.826;2023-02-02T08:26:29;6.60;99.90
44166;DHT22;30476;53.468;9.826;2023-02-02T08:29:03;6.60;99.90
44166;DHT22;30476;53.468;9.826;2023-02-02T08:31:38;6.60;99.90
44166;DHT22;30476;53.468;9.826;2023-02-02T08:34:06;6.60;99.90
44166;DHT22;30476;53.468;9.826;2023-02-02T08:36:32;6.50;99.90
44166;DHT22;30476;53.468;9.826;2023-02-02T08:39:02;6.50;99.90
44166;DHT22;30476;53.468;9.826;2023-02-02T08:41:28;6.50;99.90
44166;DHT22;30476;53.468;9.826;2023-02-02T08:43:54;6.50;99.90
44166;DHT22;30476;53.468;9.826;2023-02-02T08:46:20;6.50;99.90
44166;DHT22;30476;53.468;9.826;2023-02-02T08:48:47;6.50;99.90
44166;DHT22;30476;53.468;9.826;2023-02-02T08:51:15;6.50;99.90
44166;DHT22;30476;53.468;9.826;2023-02-02T08:53:41;6.50;99.90
44166;DHT22;30476;53.468;9.826;2023-02-02T08:56:13;6.50;99.90
44166;DHT22;30476;53.468;9.826;2023-02-02T08:58:39;6.50;99.90
44166;DHT22;30476;53.468;9.826;2023-02-02T09:03:31;6.50;99.90
44166;DHT22;30476;53.468;9.826;2023-02-02T09:05:57;6.50;99.90
44166;DHT22;30476;53.468;9.826;2023-02-02T09:08:23;6.50;99.90
44166;DHT22;30476;53.468;9.826;2023-02-02T09:10:48;6.50;99.90
44166;DHT22;30476;53.468;9.826;2023-02-02T09:13:14;6.60;99.90
44166;DHT22;30476;53.468;9.826;2023-02-02T09:15:40;6.60;99.90
44166;DHT22;30476;53.468;9.826;2023-02-02T09:18:05;6.60;99.90
44166;DHT22;30476;53.468;9.826;2023-02-02T09:20:32;6.60;99.90
44166;DHT22;30476;53.468;9.826;2023-02-02T09:22:58;6.60;99.90
44166;DHT22;30476;53.468;9.826;2023-02-02T09:25:24;6.60;99.90
44166;DHT22;30476;53.468;9.826;2023-02-02T09:27:51;6.60;99.90
44166;DHT22;30476;53.468;9.826;2023-02-02T09:30:17;6.70;99.90
44166;DHT22;30476;53.468;9.826;2023-02-02T09:32:43;6.70;99.90
44166;DHT22;30476;53.468;9.826;2023-02-02T09:35:10;6.80;99.90
44166;DHT22;30476;53.468;9.826;2023-02-02T09:37:35;6.70;99.90
44166;DHT22;30476;53.468;9.826;2023-02-02T09:40:01;6.80;99.90
44166;DHT22;30476;53.468;9.826;2023-02-02T09:42:42;6.80;99.90
44166;DHT22;30476;53.468;9.826;2023-02-02T09:45:25;6.80;99.90
44166;DHT22;30476;53.468;9.826;2023-02-02T09:48:27;6.80;99.90
44166;DHT22;30476;53.468;9.826;2023-02-02T09:50:58;6.80;99.90
44166;DHT22;30476;53.468;9.826;2023-02-02T09:55:58;6.80;99.90
44166;DHT22;30476;53.468;9.826;2023-02-02T10:01:05;6.80;99.90
44166;DHT22;30476;53.468;9.826;2023-02-02T10:04:16;6.90;99.90
44166;DHT22;30476;53.468;9.826;2023-02-02T10:06:47;6.80;99.90
44166;DHT22;30476;53.468;9.826;2023-02-02T10:15:00;6.90;99.90
44166;DHT22;30476;53.468;9.826;2023-02-02T10:17:52;7.00;99.90
44166;DHT22;30476;53.468;9.826;2023-02-02T10:22:51;7.10;99.90
44166;DHT22;30476;53.468;9.826;2023-02-02T10:25:20;7.20;99.90
44166;DHT22;30476;53.468;9.826;2023-02-02T10:28:10;7.20;99.90
44166;DHT22;30476;53.468;9.826;2023-02-02T10:30:49;7.30;99.90
44166;DHT22;30476;53.468;9.826;2023-02-02T10:33:38;7.30;99.90
44166;DHT22;30476;53.468;9.826;2023-02-02T10:36:10;7.30;99.90
44166;DHT22;30476;53.468;9.826;2023-02-02T10:39:01;7.30;99.90
44166;DHT22;30476;53.468;9.826;2023-02-02T10:41:40;7.30;99.90
44166;DHT22;30476;53.468;9.826;2023-02-02T10:47:24;7.40;99.90
44166;DHT22;30476;53.468;9.826;2023-02-02T10:50:01;7.40;99.90
44166;DHT22;30476;53.468;9.826;2023-02-02T10:52:33;7.40;99.90
44166;DHT22;30476;53.468;9.826;2023-02-02T10:55:19;7.40;99.90
44166;DHT22;30476;53.468;9.826;2023-02-02T11:03:13;7.60;99.90
44166;DHT22;30476;53.468;9.826;2023-02-02T11:05:40;7.50;99.90
44166;DHT22;30476;53.468;9.826;2023-02-02T11:08:41;7.60;99.90
44166;DHT22;30476;53.468;9.826;2023-02-02T11:11:33;7.60;99.90
44166;DHT22;30476;53.468;9.826;2023-02-02T11:16:36;7.70;99.90
44166;DHT22;30476;53.468;9.826;2023-02-02T11:19:21;7.80;99.90
44166;DHT22;30476;53.468;9.826;2023-02-02T11:21:53;7.90;99.90
44166;DHT22;30476;53.468;9.826;2023-02-02T11:27:00;8.10;99.90
44166;DHT22;30476;53.468;9.826;2023-02-02T11:29:28;8.20;99.90
44166;DHT22;30476;53.468;9.826;2023-02-02T11:31:55;8.20;99.90
44166;DHT22;30476;53.468;9.826;2023-02-02T11:34:26;8.30;99.90
44166;DHT22;30476;53.468;9.826;2023-02-02T11:37:21;8.40;99.90
44166;DHT22;30476;53.468;9.826;2023-02-02T11:39:48;8.50;99.90
44166;DHT22;30476;53.468;9.826;2023-02-02T11:42:16;8.50;99.90
44166;DHT22;30476;53.468;9.826;2023-02-02T11:47:20;8.50;99.90
44166;DHT22;30476;53.468;9.826;2023-02-02T11:49:46;8.50;99.90
44166;DHT22;30476;53.468;9.826;2023-02-02T11:52:17;8.50;99.90
44166;DHT22;30476;53.468;9.826;2023-02-02T11:54:49;8.50;99.90
44166;DHT22;30476;53.468;9.826;2023-02-02T11:57:21;8.50;99.90
44166;DHT22;30476;53.468;9.826;2023-02-02T11:59:50;8.60;99.90
44166;DHT22;30476;53.468;9.826;2023-02-02T12:02:24;8.60;99.90
44166;DHT22;30476;53.468;9.826;2023-02-02T12:04:53;8.70;99.90
44166;DHT22;30476;53.468;9.826;2023-02-02T12:07:31;8.70;99.90
44166;DHT22;30476;53.468;9.826;2023-02-02T12:10:00;8.60;99.90
44166;DHT22;30476;53.468;9.826;2023-02-02T12:12:38;8.60;99.90
44166;DHT22;30476;53.468;9.826;2023-02-02T12:15:14;8.60;99.90
44166;DHT22;30476;53.468;9.826;2023-02-02T12:17:45;8.50;99.90
44166;DHT22;30476;53.468;9.826;2023-02-02T12:20:44;8.50;99.90
44166;DHT22;30476;53.468;9.826;2023-02-02T12:34:28;8.40;99.90
44166;DHT22;30476;53.468;9.826;2023-02-02T12:37:11;8.40;99.90
44166;DHT22;30476;53.468;9.826;2023-02-02T12:45:57;8.40;99.90
44166;DHT22;30476;53.468;9.826;2023-02-02T12:48:33;8.40;99.90
44166;DHT22;30476;53.468;9.826;2023-02-02T12:54:08;8.40;99.90
44166;DHT22;30476;53.468;9.826;2023-02-02T12:57:00;8.40;99.90
44166;DHT22;30476;53.468;9.826;2023-02-02T12:59:45;8.50;99.90
44166;DHT22;30476;53.468;9.826;2023-02-02T13:02:23;8.50;99.90
44166;DHT22;30476;53.468;9.826;2023-02-02T13:08:05;8.40;99.90
44166;DHT22;30476;53.468;9.826;2023-02-02T13:10:37;8.40;99.90
44166;DHT22;30476;53.468;9.826;2023-02-02T13:13:08;8.40;99.90
44166;DHT22;30476;53.468;9.826;2023-02-02T13:15:41;8.30;99.90
44166;DHT22;30476;53.468;9.826;2023-02-02T13:18:31;8.40;99.90
44166;DHT22;30476;53.468;9.826;2023-02-02T13:21:20;8.40;99.90
44166;DHT22;30476;53.468;9.826;2023-02-02T13:23:52;8.50;99.90
44166;DHT22;30476;53.468;9.826;2023-02-02T13:26:41;8.60;99.90
44166;DHT22;30476;53.468;9.826;2023-02-02T13:29:26;8.80;99.90
44166;DHT22;30476;53.468;9.826;2023-02-02T13:31:59;8.90;99.90
44166;DHT22;30476;53.468;9.826;2023-02-02T13:40:29;9.40;99.90
44166;DHT22;30476;53.468;9.826;2023-02-02T14:00:11;10.40;99.90
44166;DHT22;30476;53.468;9.826;2023-02-02T14:02:49;10.50;99.90
44166;DHT22;30476;53.468;9.826;2023-02-02T14:05:39;10.50;99.90
44166;DHT22;30476;53.468;9.826;2023-02-02T14:08:20;10.40;99.90
44166;DHT22;30476;53.468;9.826;2023-02-02T14:13:28;10.50;99.90
44166;DHT22;30476;53.468;9.826;2023-02-02T14:16:21;10.50;99.90
44166;DHT22;30476;53.468;9.826;2023-02-02T14:18:51;10.50;99.90
44166;DHT22;30476;53.468;9.826;2023-02-02T14:24:00;10.50;99.90
44166;DHT22;30476;53.468;9.826;2023-02-02T14:26:40;10.50;99.90
44166;DHT22;30476;53.468;9.826;2023-02-02T14:31:59;10.40;99.90
44166;DHT22;30476;53.468;9.826;2023-02-02T14:42:50;10.20;99.90
44166;DHT22;30476;53.468;9.826;2023-02-02T14:45:45;10.20;99.90
44166;DHT22;30476;53.468;9.826;2023-02-02T14:48:24;10.10;99.90
44166;DHT22;30476;53.468;9.826;2023-02-02T14:50:57;10.10;99.90
44166;DHT22;30476;53.468;9.826;2023-02-02T14:53:36;10.10;99.90
44166;DHT22;30476;53.468;9.826;2023-02-02T14:56:10;10.00;99.90
44166;DHT22;30476;53.468;9.826;2023-02-02T14:58:40;9.90;99.90
44166;DHT22;30476;53.468;9.826;2023-02-02T15:03:55;9.90;99.90
44166;DHT22;30476;53.468;9.826;2023-02-02T15:12:18;9.60;99.90
44166;DHT22;30476;53.468;9.826;2023-02-02T15:20:27;9.50;99.90
44166;DHT22;30476;53.468;9.826;2023-02-02T15:25:49;9.30;99.90
44166;DHT22;30476;53.468;9.826;2023-02-02T15:28:44;9.30;99.90
44166;DHT22;30476;53.468;9.826;2023-02-02T15:34:08;9.10;99.90
44166;DHT22;30476;53.468;9.826;2023-02-02T15:36:38;9.00;99.90
44166;DHT22;30476;53.468;9.826;2023-02-02T15:39:35;9.00;99.90
44166;DHT22;30476;53.468;9.826;2023-02-02T15:42:05;8.90;99.90
44166;DHT22;30476;53.468;9.826;2023-02-02T15:44:51;8.80;99.90
44166;DHT22;30476;53.468;9.826;2023-02-02T15:47:21;8.80;99.90
44166;DHT22;30476;53.468;9.826;2023-02-02T15:49:51;8.70;99.90
44166;DHT22;30476;53.468;9.826;2023-02-02T15:52:26;8.70;99.90
44166;DHT22;30476;53.468;9.826;2023-02-02T15:54:59;8.50;99.90
44166;DHT22;30476;53.468;9.826;2023-02-02T15:57:32;8.50;99.90
44166;DHT22;30476;53.468;9.826;2023-02-02T16:00:01;8.40;99.90
44166;DHT22;30476;53.468;9.826;2023-02-02T16:02:46;8.30;99.90
44166;DHT22;30476;53.468;9.826;2023-02-02T16:05:46;8.20;99.90
44166;DHT22;30476;53.468;9.826;2023-02-02T16:08:17;8.20;99.90
44166;DHT22;30476;53.468;9.826;2023-02-02T16:10:45;8.10;99.90
44166;DHT22;30476;53.468;9.826;2023-02-02T16:13:24;8.00;99.90
44166;DHT22;30476;53.468;9.826;2023-02-02T16:15:55;7.90;99.90
44166;DHT22;30476;53.468;9.826;2023-02-02T16:18:21;7.90;99.90
44166;DHT22;30476;53.468;9.826;2023-02-02T16:20:48;7.80;99.90
44166;DHT22;30476;53.468;9.826;2023-02-02T16:23:22;7.80;99.90
44166;DHT22;30476;53.468;9.826;2023-02-02T16:25:52;7.70;99.90
44166;DHT22;30476;53.468;9.826;2023-02-02T16:28:20;7.60;99.90
44166;DHT22;30476;53.468;9.826;2023-02-02T16:30:47;7.60;99.90
44166;DHT22;30476;53.468;9.826;2023-02-02T16:33:43;7.50;99.90
44166;DHT22;30476;53.468;9.826;2023-02-02T16:36:18;7.40;99.90
44166;DHT22;30476;53.468;9.826;2023-02-02T16:38:45;7.30;99.90
44166;DHT22;30476;53.468;9.826;2023-02-02T16:43:51;7.20;99.90
44166;DHT22;30476;53.468;9.826;2023-02-02T16:46:44;7.20;99.90
44166;DHT22;30476;53.468;9.826;2023-02-02T16:49:17;7.10;99.90
44166;DHT22;30476;53.468;9.826;2023-02-02T16:51:47;7.10;99.90
44166;DHT22;30476;53.468;9.826;2023-02-02T16:54:20;7.10;99.90
44166;DHT22;30476;53.468;9.826;2023-02-02T16:56:50;7.00;99.90
44166;DHT22;30476;53.468;9.826;2023-02-02T16:59:26;6.90;99.90
44166;DHT22;30476;53.468;9.826;2023-02-02T17:01:56;6.90;99.90
44166;DHT22;30476;53.468;9.826;2023-02-02T17:04:33;6.80;99.90
44166;DHT22;30476;53.468;9.826;2023-02-02T17:07:10;6.80;99.90
44166;DHT22;30476;53.468;9.826;2023-02-02T17:09:39;6.70;99.90
44166;DHT22;30476;53.468;9.826;2023-02-02T17:17:18;6.60;99.90
44166;DHT22;30476;53.468;9.826;2023-02-02T17:19:44;6.70;99.90
44166;DHT22;30476;53.468;9.826;2023-02-02T17:22:13;6.60;99.90
44166;DHT22;30476;53.468;9.826;2023-02-02T17:24:42;6.60;99.90
44166;DHT22;30476;53.468;9.826;2023-02-02T17:27:31;6.60;99.90
44166;DHT22;30476;53.468;9.826;2023-02-02T17:30:02;6.60;99.90
44166;DHT22;30476;53.468;9.826;2023-02-02T17:32:29;6.60;99.90
44166;DHT22;30476;53.468;9.826;2023-02-02T17:34:55;6.60;99.90
44166;DHT22;30476;53.468;9.826;2023-02-02T17:37:21;6.60;99.90
44166;DHT22;30476;53.468;9.826;2023-02-02T17:39:47;6.50;99.90
44166;DHT22;30476;53.468;9.826;2023-02-02T17:42:24;6.60;99.90
44166;DHT22;30476;53.468;9.826;2023-02-02T17:44:50;6.60;99.90
44166;DHT22;30476;53.468;9.826;2023-02-02T17:47:16;6.50;99.90
44166;DHT22;30476;53.468;9.826;2023-02-02T17:49:42;6.60;99.90
44166;DHT22;30476;53.468;9.826;2023-02-02T17:52:09;6.60;99.90
44166;DHT22;30476;53.468;9.826;2023-02-02T17:54:34;6.60;99.90
44166;DHT22;30476;53.468;9.826;2023-02-02T17:57:00;6.50;99.90
44166;DHT22;30476;53.468;9.826;2023-02-02T17:59:26;6.60;99.90
44166;DHT22;30476;53.468;9.826;2023-02-02T18:01:52;6.60;99.90
44166;DHT22;30476;53.468;9.826;2023-02-02T18:04:20;6.60;99.90
44166;DHT22;30476;53.468;9.826;2023-02-02T18:06:46;6.50;99.90
44166;DHT22;30476;53.468;9.826;2023-02-02T18:09:12;6.60;99.90
44166;DHT22;30476;53.468;9.826;2023-02-02T18:11:38;6.60;99.90
44166;DHT22;30476;53.468;9.826;2023-02-02T18:14:03;6.60;99.90
44166;DHT22;30476;53.468;9.826;2023-02-02T18:16:30;6.70;99.90
44166;DHT22;30476;53.468;9.826;2023-02-02T18:18:55;6.70;99.90
44166;DHT22;30476;53.468;9.826;2023-02-02T18:21:23;6.70;99.90
44166;DHT22;30476;53.468;9.826;2023-02-02T18:23:51;6.70;99.90
44166;DHT22;30476;53.468;9.826;2023-02-02T18:26:19;6.70;99.90
44166;DHT22;30476;53.468;9.826;2023-02-02T18:28:48;6.80;99.90
44166;DHT22;30476;53.468;9.826;2023-02-02T18:31:17;6.80;99.90